Station: Menindee  

  Atmospheric Gas Attenuation - ITU Rec 676-11   ----------------- dB/100km -----------------
Date Time Temp RH % AH g/m3 Dew Point Wind Direction Speed kph Gust kph Barometer mB Rainfall Since 9am 24GHz 47GHz 76GHz 122GHz 134GHz 241GHz
08/05 09:00 12 82 8.74 9 11 1013.1 0 20.0 26.7 41.3 108.4 102.6 353.0
07/05 09:00 10.5 79 7.66 7.1 11 1013.1 17.7 25.3 37.6 98.6 89.9 308.4
06/05 09:00 13 89 10.09 11.3 4 1013.1 0 22.8 28.6 46.4 122.1 119.9 413.4
05/05 09:00 12.5 94 10.34 11.6 4 1013.1 0 23.4 29.2 47.8 125.8 124.2 428.6
04/05 09:00 15 78 10 11.3 4 1013.1 0 22.5 27.8 44.9 118.0 115.5 398.6
03/05 09:00 17.2 70 10.25 11.7 4 1013.1 7 22.9 27.6 44.6 117.4 115.6 399.2
02/05 09:00 20.5 52 9.25 10.4 11 1013.1 0 20.6 25.0 39.0 102.4 98.3 338.9
29/04 09:00 17.2 55 8.05 8.2 4 1013.1 0 18.3 24.1 36.0 94.5 87.3 300.2
28/04 09:00 16 59 8.04 8.1 4 1013.1 0 18.3 24.4 36.5 95.8 88.5 304.3
27/04 09:00 21 52 9.52 11 4 1013.1 0 21.2 25.3 39.8 104.5 101.0 348.4
25/04 09:00 19.5 55 9.23 10.2 11 1013.1 0 20.6 25.3 39.4 103.5 99.3 342.3
24/04 09:00 16 50 6.81 5.6 4 1013.1 0 15.7 22.5 32.0 83.6 73.5 251.4
23/04 09:00 17 56 8.1 8.2 7 1013.1 0 18.4 24.2 36.3 95.2 88.2 303.1
22/04 09:00 16 50 6.81 5.6 4 1013.1 0 15.7 22.5 32.0 83.6 73.5 251.4
21/04 09:00 17.5 49 7.3 6.9 4 1013.1 0 16.7 22.9 33.2 86.7 77.9 267.1
20/04 09:00 18.5 51 8.07 8.2 4 1013.1 0 18.2 23.8 35.5 93.2 86.1 296.2
19/04 09:00 18.2 44 6.84 5.8 4 1013.1 0 15.7 22.0 31.2 81.6 71.8 245.9
18/04 09:00 17.5 52 7.75 7.6 4 1013.1 0 17.6 23.6 34.8 91.1 83.3 286.2
17/04 09:00 19 63 10.27 11.8 4 1013.1 0 22.9 27.0 43.7 115.0 113.2 391.0
16/04 09:00 22.5 44 8.79 9.6 4 1013.1 0 19.6 23.8 36.4 95.5 90.3 311.3
15/04 09:00 16.5 69 9.69 10.9 4 1013.1 0 21.8 26.9 42.8 112.4 109.2 376.6
14/04 09:00 14.5 83 10.32 11.7 4 1013.1 0 23.2 28.5 46.5 122.3 120.7 416.6
12/04 09:00 14.9 68 8.67 9 15 1013.1 0 19.7 25.7 39.5 103.7 97.9 337.0
11/04 09:00 16.5 64 8.99 9.8 7 1013.1 0 20.3 25.7 40.0 105.0 100.0 344.6
10/04 09:00 20 72 12.44 14.9 4 1013.1 2 27.4 30.3 52.0 137.0 140.7 487.1
09/04 09:00 25.5 53 12.55 15.4 4 1013.1 0 27.3 28.6 48.9 128.9 132.5 459.1
08/04 09:00 22 54 10.48 12.3 4 1013.1 0 23.2 26.5 42.9 112.9 111.6 385.7
07/04 09:00 21 90 16.49 19.3 9 1013.1 0 36.0 37.1 69.2 182.9 197.4 685.1
06/04 09:00 23.4 42 8.83 9.9 4 1013.1 0 19.6 23.6 36.1 94.8 89.8 309.5
05/04 09:00 20.6 45 8.05 8.4 4 1013.1 18.1 23.2 34.6 90.6 83.7 287.7
04/04 09:00 18.1 66 10.2 11.7 17 1013.1 0 22.8 27.2 43.9 115.6 113.6 392.3
03/04 09:00 18.6 59 9.39 10.4 4 1013.1 0 21.0 25.8 40.5 106.3 102.4 353.3
02/04 09:00 17 85 12.3 14.4 4 1013.1 0 27.3 31.1 53.4 140.8 144.3 499.4
31/03 09:00 17 70 10.13 11.5 4 1013.1 0 22.7 27.4 44.3 116.4 114.3 394.6
30/03 09:00 17 70 10.13 11.5 4 1013.1 0 22.7 27.4 44.3 116.4 114.3 394.6
29/03 09:00 17.5 70 10.44 12.1 7 1013.1 0 23.3 27.8 45.2 119.0 117.7 406.5
28/03 09:00 12 75 7.99 7.7 11 1013.1 0 18.4 25.4 38.2 100.2 92.5 317.7
27/03 09:00 10.5 69 6.69 5 11 1013.1 16 15.7 23.8 33.8 88.3 77.2 263.9
26/03 09:00 20 81 14 16.7 24 1013.1 0 30.8 33.0 58.7 155.0 162.7 564.1
25/03 09:00 23.2 65 13.51 16.3 4 1013.1 0 29.5 31.0 54.3 143.2 149.3 517.7
24/03 09:00 22.1 77 15.03 17.9 4 1013.1 0 32.8 34.0 61.6 162.8 173.0 600.1
22/03 09:00 25.5 57 13.49 16.4 4 1013.1 0 29.3 30.1 52.6 138.9 144.7 501.7
21/03 09:00 23.5 70 14.8 17.7 7 1013.1 0 32.2 33.0 59.5 157.2 166.6 577.9
20/03 09:00 21 100 18.32 21 7 1013.1 0 39.9 40.7 78.0 206.4 226.2 785.1
19/03 09:00 22.5 95 18.97 21.7 4 1013.1 7 41.2 41.2 79.6 210.7 232.0 805.4
18/03 09:00 23 84 17.26 20.1 7 1013.1 0.5 37.5 37.7 71.0 187.6 203.8 707.6
17/03 09:00 21 90 16.49 19.4 4 1013.1 0 36.0 37.1 69.2 182.9 197.4 685.1
16/03 09:00 28.5 52 14.54 17.8 4 1013.1 0 31.2 30.8 54.8 144.7 152.7 530.1
14/03 09:00 20 55 9.5 10.9 4 1013.1 0 21.2 25.5 40.2 105.6 102.0 351.9
12/03 09:00 16 69 9.4 10.3 7 1013.1 0 21.2 26.5 41.9 110.0 106.0 365.5
11/03 09:00 25.5 65 15.39 18.4 4 1013.1 0 33.3 33.3 60.5 159.8 170.4 591.6
10/03 09:00 19.5 68 11.41 13.4 4 1013.1 0 25.3 28.7 48.0 126.5 127.5 441.1
07/03 09:00 21.5 61 11.5 13.7 4 1013.1 0 25.3 28.2 47.2 124.3 125.5 434.1
06/03 09:00 21.2 63 11.67 14 4 1013.1 0 25.7 28.6 48.0 126.6 128.2 443.6
05/03 09:00 19.5 85 14.26 17 7 1013.1 0 31.3 33.6 60.3 159.1 167.6 581.0
04/03 09:00 19 90 14.67 17.4 7 1013.1 0 32.3 34.6 62.5 165.1 174.8 606.1
03/03 09:00 19.5 97 16.28 19 11 1013.1 2 35.7 37.4 69.6 183.9 198.2 687.4
02/03 09:00 24.2 98 21.56 23.9 4 1013.1 22 46.5 45.5 90.7 240.0 268.5 932.6
01/03 09:00 26.5 80 20.03 22.8 4 1013.1 34 43.0 41.3 80.5 213.0 236.1 820.2
28/02 09:00 29 71 20.4 23.2 11 1013.1 0 43.5 40.7 79.6 210.7 233.9 812.9
27/02 09:00 28.5 71 19.85 22.8 7 1013.1 0 42.4 40.0 77.6 205.3 227.1 789.4
26/02 09:00 23.5 87 18.4 21.2 4 1013.1 2 39.8 39.6 75.9 200.6 219.9 763.7
25/02 09:00 24 100 21.76 24 7 1013.1 0.5 47.0 46.0 92.0 243.4 272.6 946.7
24/02 09:00 27 84 21.62 24.1 4 1013.1 0 46.3 44.1 87.6 232.0 259.4 901.5
22/02 09:00 29 71 20.4 23.3 4 1013.1 0 43.5 40.7 79.6 210.7 233.9 812.9
21/02 09:00 33 37 13.18 16.4 7 1013.1 0 28.1 27.2 46.8 123.5 127.8 443.8
20/02 09:00 24.9 44 10.07 11.9 4 1013.1 0 22.1 25.0 39.9 104.9 102.6 354.7
19/02 09:00 20 55 9.5 10.9 11 1013.1 0 21.2 25.5 40.2 105.6 102.0 351.9
18/02 09:00 20.5 56 9.96 11.5 11 1013.1 0 22.1 26.1 41.7 109.6 107.1 369.9
17/02 09:00 25.5 72 17.05 20.1 4 1013.1 0 36.8 36.2 67.7 179.1 194.1 674.0
16/02 09:00 26.2 67 16.49 19.7 9 1013.1 0 35.5 34.9 64.7 170.9 184.3 640.0
15/02 09:00 24.6 85 19.13 21.9 4 1013.1 7 41.3 40.5 78.2 206.9 228.0 791.8
14/02 09:00 22.2 49 9.62 11.2 7 1013.1 0 21.3 25.1 39.6 103.9 100.7 347.5
13/02 09:00 18 62 9.52 10.6 7 1013.1 0 21.3 26.1 41.3 108.5 104.9 361.8
11/02 09:00 30.5 62 19.32 22.4 4 1013.1 0 41.1 38.1 73.2 193.7 213.5 742.3
10/02 09:00 28.5 42 11.74 14.4 4 1013.1 0 25.4 26.5 44.1 116.2 117.6 407.7
09/02 09:00 25.5 95 22.49 24.6 4 1013.1 0 48.3 46.7 93.8 248.4 279.1 969.7
08/02 09:00 23.1 98 20.26 22.7 1013.1 7 43.9 43.5 85.4 226.0 250.9 871.3
07/02 09:00 29 58 16.66 19.9 7 1013.1 0 35.6 34.1 63.1 166.8 180.0 625.3
06/02 09:00 27 26 6.69 5.8 4 1013.1 0 15.0 19.9 27.6 72.1 62.9 215.5
05/02 09:00 27.6 23 6.12 5.1 4 1013.1 0 13.8 19.0 25.7 66.9 56.7 193.6
04/02 09:00 27 56 14.41 17.5 4 1013.1 0 31.1 31.1 55.3 146.1 154.0 534.3
03/02 09:00 21 41 7.51 7.4 4 1013.1 0 17.0 22.3 32.5 85.0 77.0 264.3
02/02 09:00 16 50 6.81 5.6 33 1013.1 0 15.7 22.5 32.0 83.6 73.5 251.4
01/02 09:00 21 73 13.37 16 33 1013.1 6 29.3 31.5 55.2 145.7 151.7 525.7
31/01 09:00 35 37 14.63 18.5 4 1013.1 0 30.9 28.8 50.8 134.3 141.7 492.3
30/01 09:00 32 38 12.83 16.1 4 1013.1 0 27.5 27.0 46.1 121.6 125.3 434.8
29/01 09:00 32 43 14.52 17.9 4 1013.1 0 30.9 29.6 52.4 138.3 145.8 506.4
28/01 09:00 32.6 26 9.06 11 4 1013.1 0 19.7 21.7 33.1 86.8 82.6 285.2
27/01 09:00 30 49 14.86 18.4 4 1013.1 0 31.8 30.8 55.0 145.3 153.9 534.5
26/01 09:00 36 29 12.08 15.3 4 1013.1 0 25.7 24.8 41.4 109.0 110.9 384.8
25/01 09:00 34.8 16 6.26 5.6 4 1013.1 0 13.9 17.8 24.0 62.5 53.3 182.5
24/01 09:00 31.5 20 6.58 6.4 11 1013.1 0 14.6 18.8 25.9 67.5 58.5 200.6
23/01 09:00 19.9 36 6.18 4.7 7 1013.1 0 14.2 20.7 28.3 73.9 62.9 214.7
22/01 09:00 19 63 10.27 11.8 11 1013.1 0 22.9 27.0 43.7 115.0 113.2 391.0
21/01 09:00 27.5 53 14.02 17.1 4 1013.1 0 30.2 30.3 53.4 141.0 147.9 513.1
20/01 09:00 23 59 12.13 14.6 11 1013.1 0 26.6 28.8 48.8 128.6 131.2 454.5
19/01 09:00 21.5 69 13.01 15.7 4 1013.1 0 28.5 30.7 53.4 140.7 145.7 505.0
18/01 09:00 24.5 51 11.41 13.8 4 1013.1 0 25.0 27.2 45.1 118.7 119.6 414.0
17/01 09:00 26.5 45 11.26 13.9 4 1013.1 0 24.5 26.3 43.4 114.3 114.8 397.4

Last Refresh: 08-May-2026 12:08:28

Bureau of Meteorology